Time;durP1;ratioP1;P1;durP2;ratioP2;P2;SDS_P1;SDS_P2;PMS_P1;PMS_P2;Temp;Humidity;BMP_temperature;BMP_pressure;BME280_temperature;BME280_humidity;BME280_pressure;Samples;Min_cycle;Max_cycle;Signal;HPM_P1;HPM_P2
2022/06/14 00:01:14;;;;;;;4.80;3.00;;;;;;;11.57;63.69;94437.03;4934480;29;20074;-58
2022/06/14 00:03:44;;;;;;;7.90;3.50;;;;;;;11.55;63.67;94433.13;4935607;29;20040;-59
2022/06/14 00:06:15;;;;;;;6.72;3.28;;;;;;;11.55;63.75;94435.88;4934889;29;20117;-59
2022/06/14 00:08:42;;;;;;;5.50;3.30;;;;;;;11.47;64.14;94429.69;4935689;29;20058;-59
2022/06/14 00:11:30;;;;;;;6.00;3.30;;;;;;;11.40;64.29;94430.53;4932969;29;20523;-59
2022/06/14 00:13:59;;;;;;;6.72;3.40;;;;;;;11.42;64.63;94424.63;4926598;29;20403;-59
2022/06/14 00:16:28;;;;;;;6.33;3.40;;;;;;;11.37;64.47;94428.63;4935319;29;20047;-59
2022/06/14 00:18:55;;;;;;;8.15;3.70;;;;;;;11.32;64.33;94420.03;4921565;29;20044;-58
2022/06/14 00:21:22;;;;;;;6.07;3.72;;;;;;;11.30;64.49;94416.91;4935185;29;20071;-58
2022/06/14 00:23:49;;;;;;;6.13;3.15;;;;;;;11.24;65.27;94418.53;4935248;29;20044;-59
2022/06/14 00:26:15;;;;;;;5.60;3.22;;;;;;;11.16;66.27;94423.31;4934836;29;20043;-59
2022/06/14 00:28:44;;;;;;;5.60;3.20;;;;;;;11.11;66.33;94415.53;4935304;29;20043;-59
2022/06/14 00:31:17;;;;;;;5.35;3.20;;;;;;;11.09;66.17;94424.16;4934693;29;20467;-58
2022/06/14 00:33:45;;;;;;;8.50;3.33;;;;;;;11.10;65.98;94422.19;4934094;29;20110;-58
2022/06/14 00:36:28;;;;;;;5.60;3.20;;;;;;;11.06;65.95;94418.69;4932994;29;20039;-58
2022/06/14 00:39:02;;;;;;;6.78;3.72;;;;;;;11.03;66.06;94417.56;4934458;29;20124;-58
2022/06/14 00:41:49;;;;;;;15.77;9.87;;;;;;;10.95;65.98;94419.59;4933953;29;20062;-59
2022/06/14 00:44:24;;;;;;;20.25;10.93;;;;;;;10.89;66.17;94414.94;4934320;29;20163;-59
2022/06/14 00:46:51;;;;;;;11.82;6.70;;;;;;;10.86;66.09;94410.25;4934660;29;20046;-59
2022/06/14 00:49:31;;;;;;;8.25;4.85;;;;;;;10.86;66.43;94410.25;4933749;29;20097;-59
2022/06/14 00:52:05;;;;;;;8.05;3.30;;;;;;;10.90;66.64;94409.03;4934034;29;20083;-58
2022/06/14 00:54:41;;;;;;;5.60;3.30;;;;;;;10.86;65.91;94410.25;4934608;29;20050;-59
2022/06/14 00:57:18;;;;;;;5.60;3.47;;;;;;;10.86;65.98;94410.25;4918000;29;20181;-58
2022/06/14 01:00:01;;;;;;;6.03;3.42;;;;;;;10.81;66.53;94402.47;4918754;29;20047;-59
2022/06/14 01:02:35;;;;;;;4.68;3.00;;;;;;;10.75;66.83;94411.13;4902630;29;21559;-58
2022/06/14 01:05:10;;;;;;;6.22;3.40;;;;;;;10.63;68.07;94397.09;4922765;29;20048;-58
2022/06/14 01:07:44;;;;;;;5.27;3.20;;;;;;;10.52;68.50;94408.16;4928472;29;20118;-59
2022/06/14 01:10:24;;;;;;;6.10;3.00;;;;;;;10.50;68.36;94411.31;4934286;29;20043;-59
2022/06/14 01:12:54;;;;;;;148.55;75.53;;;;;;;10.51;68.20;94403.84;4934306;29;20045;-58
2022/06/14 01:15:25;;;;;;;59.38;31.25;;;;;;;10.49;68.10;94398.00;4920989;29;20392;-59
2022/06/14 01:17:58;;;;;;;19.85;11.13;;;;;;;10.48;68.18;94404.66;4933157;29;20046;-58
2022/06/14 01:20:26;;;;;;;10.63;4.87;;;;;;;10.39;68.07;94400.41;4933228;29;20251;-59
2022/06/14 01:22:54;;;;;;;11.38;4.30;;;;;;;10.37;68.00;94393.75;4933976;29;20047;-59
2022/06/14 01:25:22;;;;;;;8.45;3.80;;;;;;;10.37;67.81;94396.50;4933051;29;20953;-58
2022/06/14 01:27:51;;;;;;;6.05;3.38;;;;;;;10.33;68.13;94395.75;4934094;29;20058;-59
2022/06/14 01:30:33;;;;;;;6.95;3.70;;;;;;;10.32;67.98;94392.22;4930123;29;20416;-58
2022/06/14 01:33:06;;;;;;;5.60;3.30;;;;;;;10.30;68.23;94391.06;4921632;29;20451;-58
2022/06/14 01:35:38;;;;;;;5.50;3.40;;;;;;;10.26;68.34;94387.53;4932249;29;20043;-58
2022/06/14 01:38:09;;;;;;;6.53;3.80;;;;;;;10.25;68.75;94391.47;4932182;29;20044;-58
2022/06/14 01:40:42;;;;;;;7.57;3.50;;;;;;;10.17;68.75;94386.00;4934034;29;20050;-59
2022/06/14 01:43:38;;;;;;;6.82;3.55;;;;;;;10.16;68.53;94389.94;4932180;29;20431;-58
2022/06/14 01:46:21;;;;;;;7.57;3.30;;;;;;;10.15;68.77;94385.63;4929668;29;20040;-59
2022/06/14 01:52:03;;;;;;;5.72;3.38;;;;;;;10.05;69.35;94399.41;4912506;29;20130;-58
2022/06/14 01:54:46;;;;;;;16.70;9.25;;;;;;;9.97;69.39;94388.47;4932715;29;20682;-59
2022/06/14 01:57:31;;;;;;;39.45;21.38;;;;;;;9.95;69.49;94387.31;4915950;29;20048;-58
2022/06/14 02:00:18;;;;;;;9.97;6.00;;;;;;;9.91;69.66;94384.59;4914639;29;20359;-58
2022/06/14 02:06:06;;;;;;;6.50;3.85;;;;;;;9.89;69.39;94395.16;4907465;29;21572;-59
2022/06/14 02:08:41;;;;;;;5.55;3.45;;;;;;;9.89;69.42;94388.91;4909442;29;20040;-59
2022/06/14 02:11:14;;;;;;;6.22;3.47;;;;;;;9.84;69.86;94389.31;4933168;29;20054;-58
2022/06/14 02:13:46;;;;;;;6.97;3.70;;;;;;;9.83;69.74;94388.53;4926628;29;20048;-59
2022/06/14 02:16:27;;;;;;;8.10;3.70;;;;;;;9.78;69.76;94392.50;4927410;29;20067;-59
2022/06/14 02:19:31;;;;;;;5.57;3.70;;;;;;;9.66;70.61;94381.19;4932758;29;20048;-59
2022/06/14 02:22:05;;;;;;;6.50;3.60;;;;;;;9.38;71.29;94385.59;4931785;29;20054;-58
2022/06/14 02:24:41;;;;;;;5.47;3.80;;;;;;;9.34;71.87;94391.09;4923427;29;20044;-59
2022/06/14 02:27:16;;;;;;;5.70;3.30;;;;;;;9.35;71.58;94389.91;4930020;29;20408;-58
2022/06/14 02:29:48;;;;;;;6.13;3.63;;;;;;;9.36;71.62;94385.22;4933338;29;20119;-59
2022/06/14 02:32:33;;;;;;;8.20;3.78;;;;;;;9.35;72.05;94394.59;4919207;29;20394;-59
2022/06/14 02:35:11;;;;;;;6.35;3.92;;;;;;;9.37;71.38;94386.78;4921271;29;20043;-58
2022/06/14 02:37:45;;;;;;;6.72;4.18;;;;;;;9.40;71.37;94391.47;4933047;29;20121;-59
2022/06/14 02:40:27;;;;;;;7.67;3.70;;;;;;;9.33;70.79;94381.28;4918977;29;20067;-59
2022/06/14 02:43:15;;;;;;;6.35;3.70;;;;;;;9.30;71.86;94384.06;4932370;29;20043;-57
2022/06/14 02:46:09;;;;;;;7.97;3.85;;;;;;;8.69;74.84;94384.94;4933006;29;20050;-58
2022/06/14 02:48:52;;;;;;;6.60;3.90;;;;;;;8.26;75.91;94379.44;4922992;29;20954;-59
2022/06/14 02:51:26;;;;;;;7.80;4.13;;;;;;;8.18;77.42;94386.84;4923974;29;21796;-59
2022/06/14 02:54:01;;;;;;;7.77;4.10;;;;;;;8.39;76.45;94386.09;4928670;29;20051;-59
2022/06/14 02:56:37;;;;;;;8.32;4.40;;;;;;;8.50;76.25;94388.06;4931937;29;21550;-59
2022/06/14 02:59:21;;;;;;;7.95;4.50;;;;;;;8.65;75.31;94380.63;4932251;29;20486;-59
2022/06/14 03:02:01;;;;;;;10.25;4.20;;;;;;;8.74;74.67;94379.06;4932556;29;20450;-59
2022/06/14 03:04:57;;;;;;;10.15;4.32;;;;;;;8.76;75.10;94381.41;4928172;29;20410;-58
2022/06/14 03:07:51;;;;;;;7.80;4.60;;;;;;;8.83;74.26;94386.88;4925077;29;20496;-58
2022/06/14 03:10:19;;;;;;;6.50;4.00;;;;;;;8.84;74.08;94385.72;4884711;29;20036;-58
2022/06/14 03:13:06;;;;;;;6.40;3.85;;;;;;;8.80;73.70;94382.97;4927813;29;20073;-58
2022/06/14 03:15:33;;;;;;;6.60;4.35;;;;;;;8.81;74.83;94386.47;4931476;29;20351;-59
2022/06/14 03:18:09;;;;;;;7.38;4.10;;;;;;;8.83;74.11;94380.63;4931960;29;20070;-58
2022/06/14 03:20:51;;;;;;;7.53;4.17;;;;;;;8.89;74.36;94384.53;4932506;29;20046;-58
2022/06/14 03:23:35;;;;;;;7.45;4.05;;;;;;;8.88;73.98;94385.72;4932010;29;20048;-59
2022/06/14 03:26:10;;;;;;;7.30;4.50;;;;;;;8.51;76.24;94389.63;4926725;29;20083;-58
2022/06/14 03:28:50;;;;;;;6.97;4.32;;;;;;;8.58;75.27;94378.69;4910950;29;20095;-58
2022/06/14 03:31:31;;;;;;;6.45;4.30;;;;;;;8.71;74.90;94371.66;4916224;29;20130;-58
2022/06/14 03:34:24;;;;;;;7.83;4.30;;;;;;;8.78;74.47;94379.06;4919699;29;20044;-58
2022/06/14 03:36:53;;;;;;;7.20;3.70;;;;;;;8.83;73.89;94375.16;4902165;29;20040;-59
2022/06/14 03:39:24;;;;;;;7.97;4.50;;;;;;;8.87;73.84;94376.69;4926022;29;20793;-59
2022/06/14 03:41:53;;;;;;;9.43;4.65;;;;;;;8.95;74.00;94374.75;4932349;29;20040;-59
2022/06/14 03:44:22;;;;;;;8.90;4.00;;;;;;;8.94;73.50;94379.44;4917668;29;20601;-58
2022/06/14 03:47:09;;;;;;;6.17;4.10;;;;;;;8.64;74.29;94376.34;4932228;29;20052;-59
2022/06/14 03:49:40;;;;;;;8.70;4.50;;;;;;;8.35;75.59;94377.09;4931311;29;20066;-58
2022/06/14 03:52:06;;;;;;;7.75;4.53;;;;;;;8.47;75.41;94380.63;4931658;29;20044;-59
2022/06/14 03:54:59;;;;;;;8.52;4.40;;;;;;;8.63;75.05;94377.50;4932183;29;20051;-58
2022/06/14 03:57:49;;;;;;;9.27;4.55;;;;;;;8.78;74.67;94384.53;4914733;29;20063;-58
2022/06/14 04:00:25;;;;;;;7.27;4.07;;;;;;;8.90;74.11;94380.63;4923304;29;20382;-59
2022/06/14 04:03:12;;;;;;;7.75;4.38;;;;;;;8.98;73.80;94380.22;4913223;29;20078;-58
2022/06/14 04:06:13;;;;;;;7.00;3.97;;;;;;;9.09;73.14;94382.16;4930750;29;20901;-59
2022/06/14 04:09:19;;;;;;;7.05;4.10;;;;;;;9.07;72.64;94389.97;4931133;29;21812;-59
2022/06/14 04:12:01;;;;;;;7.05;4.05;;;;;;;9.09;72.37;94380.19;4931373;29;20742;-59
2022/06/14 04:14:54;;;;;;;6.93;4.10;;;;;;;9.18;72.70;94386.03;4930920;29;20591;-59
2022/06/14 04:17:38;;;;;;;8.00;4.35;;;;;;;9.07;73.40;94377.06;4931217;29;20405;-58
2022/06/14 04:20:22;;;;;;;10.60;4.97;;;;;;;9.14;73.48;94377.06;4931392;29;20144;-58
2022/06/14 04:22:55;;;;;;;8.07;4.57;;;;;;;9.27;73.04;94377.41;4931893;29;20429;-59
2022/06/14 04:25:34;;;;;;;8.30;4.40;;;;;;;9.28;72.42;94380.94;4931561;29;20073;-59
2022/06/14 04:28:22;;;;;;;6.27;4.00;;;;;;;11.83;64.59;94382.56;4914980;29;20056;-59
2022/06/14 04:30:59;;;;;;;7.90;4.25;;;;;;;13.66;58.03;94373.38;4919735;29;20063;-59
2022/06/14 04:33:39;;;;;;;6.90;4.22;;;;;;;15.27;54.06;94374.47;4925981;29;20863;-57
2022/06/14 04:36:31;;;;;;;8.63;4.20;;;;;;;16.55;50.18;94378.38;4919421;29;20056;-57
2022/06/14 04:39:11;;;;;;;5.80;4.20;;;;;;;16.68;48.17;94370.09;4934501;29;20040;-57
2022/06/14 04:41:49;;;;;;;7.13;4.20;;;;;;;15.00;52.06;94364.50;4934958;29;20047;-58
2022/06/14 04:44:19;;;;;;;9.88;4.53;;;;;;;12.94;57.24;94367.16;4904168;29;20044;-57
2022/06/14 04:46:57;;;;;;;7.13;4.55;;;;;;;12.26;59.72;94375.72;4922079;29;20411;-57
2022/06/14 04:49:41;;;;;;;8.43;4.60;;;;;;;11.88;61.54;94368.34;4916984;29;20508;-57
2022/06/14 04:52:20;;;;;;;6.57;4.30;;;;;;;11.28;64.15;94373.34;4934171;29;20051;-57
2022/06/14 04:55:16;;;;;;;8.20;4.60;;;;;;;11.43;63.90;94374.00;4934705;29;20050;-57
2022/06/14 04:57:58;;;;;;;8.63;5.05;;;;;;;11.10;65.29;94372.75;4923665;29;21733;-59
2022/06/14 05:00:39;;;;;;;9.23;4.85;;;;;;;10.84;66.25;94377.69;4929839;29;21783;-57
2022/06/14 05:03:21;;;;;;;7.97;4.88;;;;;;;10.50;68.05;94372.09;4926036;29;20078;-57
2022/06/14 05:05:55;;;;;;;10.18;5.28;;;;;;;10.40;68.46;94373.72;4934201;29;20044;-57
2022/06/14 05:08:31;;;;;;;10.80;5.50;;;;;;;10.24;69.07;94373.44;4933417;29;20222;-57
2022/06/14 05:11:13;;;;;;;9.02;5.30;;;;;;;10.14;70.39;94372.31;4933952;29;20040;-57
2022/06/14 05:13:58;;;;;;;9.10;5.30;;;;;;;10.45;69.71;94367.06;4934332;29;20062;-58
2022/06/14 05:16:35;;;;;;;9.45;5.28;;;;;;;11.75;65.55;94370.06;4933524;29;21478;-58
2022/06/14 05:19:12;;;;;;;9.52;4.57;;;;;;;15.35;55.33;94360.03;4933575;29;20043;-58
2022/06/14 05:22:01;;;;;;;7.27;4.37;;;;;;;16.99;49.06;94357.66;4934102;29;20071;-58
2022/06/14 05:24:28;;;;;;;7.43;4.00;;;;;;;18.80;44.95;94351.53;4932871;29;20616;-58
2022/06/14 05:27:25;;;;;;;6.90;3.72;;;;;;;20.05;41.75;94348.25;4933565;29;20039;-58
2022/06/14 05:30:00;;;;;;;6.55;3.72;;;;;;;20.43;40.57;94348.94;4933750;29;20052;-58
2022/06/14 05:32:34;;;;;;;6.10;3.90;;;;;;;20.62;40.62;94350.44;4931978;29;20927;-58
2022/06/14 05:35:30;;;;;;;6.00;3.70;;;;;;;21.35;39.45;94351.31;4918995;29;20052;-59
2022/06/14 05:38:25;;;;;;;10.48;7.13;;;;;;;22.32;37.37;94346.34;4917654;29;20048;-58
2022/06/14 05:41:00;;;;;;;12.07;7.38;;;;;;;24.72;32.91;94345.59;4933948;29;20050;-58
2022/06/14 05:43:34;;;;;;;5.85;3.78;;;;;;;25.84;30.54;94347.56;4932632;29;20040;-59
2022/06/14 05:46:03;;;;;;;7.00;3.72;;;;;;;25.97;30.79;94349.91;4931599;29;20059;-59
2022/06/14 05:48:34;;;;;;;4.83;3.30;;;;;;;26.03;30.45;94347.88;4933418;29;20074;-59
2022/06/14 05:51:04;;;;;;;4.70;3.10;;;;;;;25.25;31.26;94349.84;4933184;29;20058;-59
2022/06/14 05:53:39;;;;;;;5.90;3.53;;;;;;;25.64;31.21;94349.25;4933428;29;20118;-59
2022/06/14 05:56:15;;;;;;;6.43;3.28;;;;;;;24.81;32.28;94348.22;4931826;29;20044;-59
2022/06/14 05:58:57;;;;;;;5.55;3.70;;;;;;;23.80;33.91;94353.59;4933592;29;20039;-59
2022/06/14 06:01:30;;;;;;;5.30;3.10;;;;;;;25.95;31.23;94353.22;4920351;29;21671;-59
2022/06/14 06:04:13;;;;;;;6.00;3.47;;;;;;;24.78;33.51;94354.81;4913927;29;20040;-58
2022/06/14 06:06:58;;;;;;;5.40;3.28;;;;;;;26.13;30.29;94352.00;4910728;29;20071;-59
2022/06/14 06:09:32;;;;;;;5.43;3.30;;;;;;;26.12;30.60;94347.66;4921076;29;20757;-60
2022/06/14 06:12:09;;;;;;;5.15;3.30;;;;;;;29.07;26.64;94337.81;4922756;29;20039;-60
2022/06/14 06:14:45;;;;;;;7.83;3.50;;;;;;;27.52;28.06;94337.66;4933284;29;20043;-59
2022/06/14 06:17:15;;;;;;;5.18;3.30;;;;;;;28.70;26.51;94338.41;4932385;29;20044;-60
2022/06/14 06:20:09;;;;;;;5.60;3.22;;;;;;;30.33;24.88;94331.03;4919769;29;20046;-57
2022/06/14 06:22:45;;;;;;;5.47;3.03;;;;;;;31.79;23.46;94336.31;4932196;29;20100;-58
2022/06/14 06:25:23;;;;;;;5.80;3.17;;;;;;;31.88;22.79;94340.03;4932226;29;20055;-58
2022/06/14 06:28:08;;;;;;;5.93;3.10;;;;;;;30.43;24.69;94337.06;4921028;29;20391;-58
2022/06/14 06:30:46;;;;;;;5.60;2.90;;;;;;;31.49;23.94;94333.78;4914739;29;21571;-58
2022/06/14 06:33:15;;;;;;;5.70;3.13;;;;;;;29.12;26.47;94333.41;4919038;29;20398;-58
2022/06/14 06:36:11;;;;;;;6.07;3.08;;;;;;;29.75;25.82;94337.16;4922046;29;20071;-58
2022/06/14 06:38:40;;;;;;;6.30;3.40;;;;;;;28.47;27.95;94349.78;4913530;29;20622;-58
2022/06/14 06:44:00;;;;;;;4.95;3.05;;;;;;;30.87;24.43;94343.34;4932067;29;20043;-58
2022/06/14 06:46:33;;;;;;;7.80;2.90;;;;;;;31.18;24.54;94336.13;4932797;29;20059;-59
2022/06/14 06:49:05;;;;;;;6.03;3.67;;;;;;;29.92;25.53;94337.69;4931298;29;20058;-58
2022/06/14 06:51:43;;;;;;;6.43;3.10;;;;;;;31.79;23.88;94344.06;4932645;29;20048;-58
2022/06/14 06:54:22;;;;;;;4.80;3.03;;;;;;;30.72;24.07;94340.22;4932172;29;20059;-58
2022/06/14 06:56:53;;;;;;;7.10;3.17;;;;;;;31.69;23.31;94328.78;4932584;29;20121;-58
2022/06/14 06:59:29;;;;;;;5.75;3.22;;;;;;;31.74;22.47;94330.75;4931581;29;21610;-58
2022/06/14 07:02:01;;;;;;;6.35;3.10;;;;;;;34.45;20.57;94338.31;4932049;29;20052;-58
2022/06/14 07:07:24;;;;;;;5.50;2.90;;;;;;;34.58;19.69;94333.22;4931299;29;21615;-59
2022/06/14 07:10:35;;;;;;;6.35;3.08;;;;;;;33.66;20.26;94329.94;4924870;29;20051;-59
2022/06/14 07:13:11;;;;;;;8.70;3.13;;;;;;;35.28;18.94;94330.53;4917592;29;20682;-59
2022/06/14 07:15:43;;;;;;;5.60;2.75;;;;;;;36.24;17.68;94327.94;4932717;29;20036;-58
2022/06/14 07:18:10;;;;;;;5.53;2.70;;;;;;;36.56;17.06;94326.44;4918457;29;20082;-58
2022/06/14 07:20:55;;;;;;;6.70;2.90;;;;;;;33.81;20.00;94329.28;4932415;29;20050;-59
2022/06/14 07:23:37;;;;;;;5.22;2.50;;;;;;;32.48;21.81;94332.81;4931503;29;20118;-58
2022/06/14 07:26:21;;;;;;;6.07;2.80;;;;;;;33.57;20.58;94328.34;4931617;29;20051;-59
2022/06/14 07:29:11;;;;;;;4.43;2.67;;;;;;;36.18;18.09;94324.50;4932273;29;20043;-58
2022/06/14 07:31:59;;;;;;;7.38;2.63;;;;;;;36.32;17.14;94314.38;4931319;29;20052;-58
2022/06/14 07:34:27;;;;;;;5.13;2.40;;;;;;;30.63;22.52;94328.00;4922433;29;20047;-58
2022/06/14 07:37:14;;;;;;;5.57;2.70;;;;;;;29.87;22.07;94322.34;4931823;29;20122;-56
2022/06/14 07:39:49;;;;;;;5.45;2.60;;;;;;;34.29;18.24;94326.09;4932528;29;20051;-59
2022/06/14 07:42:19;;;;;;;4.40;2.30;;;;;;;30.56;21.72;94328.59;4931868;29;20044;-58
2022/06/14 07:44:51;;;;;;;5.75;2.30;;;;;;;32.43;20.76;94328.78;4932061;29;20044;-59
2022/06/14 07:47:30;;;;;;;4.17;2.40;;;;;;;34.91;18.13;94321.34;4931359;29;20039;-59
2022/06/14 07:50:02;;;;;;;5.22;2.30;;;;;;;36.72;15.91;94319.31;4931279;29;20047;-57
2022/06/14 07:52:36;;;;;;;5.10;2.40;;;;;;;34.59;17.72;94328.28;4932155;29;20058;-59
2022/06/14 07:55:15;;;;;;;5.95;2.40;;;;;;;30.27;21.32;94324.66;4931269;29;20058;-58
2022/06/14 07:57:45;;;;;;;5.13;2.50;;;;;;;27.05;24.62;94331.88;4922938;29;20040;-58
2022/06/14 08:03:30;;;;;;;5.38;2.72;;;;;;;27.98;24.62;94318.53;4934440;29;21509;-59
2022/06/14 08:06:01;;;;;;;5.10;2.50;;;;;;;33.17;18.42;94305.88;4934925;29;20512;-58
2022/06/14 08:08:34;;;;;;;4.45;2.30;;;;;;;32.09;18.97;94312.50;4920132;29;20048;-59
2022/06/14 08:11:13;;;;;;;6.93;5.53;;;;;;;31.48;19.61;94312.41;4919599;29;20039;-59
2022/06/14 08:13:47;;;;;;;4.23;2.50;;;;;;;27.22;24.01;94309.28;4924604;29;20062;-58
2022/06/14 08:16:16;;;;;;;6.90;2.20;;;;;;;30.69;20.56;94310.91;4926590;29;20044;-58
2022/06/14 08:18:49;;;;;;;5.15;2.30;;;;;;;31.10;19.82;94303.31;4929021;29;20051;-58
2022/06/14 08:21:35;;;;;;;4.28;1.98;;;;;;;33.52;17.42;94302.88;4934834;29;20055;-59
2022/06/14 08:24:08;;;;;;;3.72;1.98;;;;;;;33.98;16.86;94298.22;4916089;29;20520;-58
2022/06/14 08:26:35;;;;;;;4.60;2.00;;;;;;;34.71;16.34;94303.06;4924888;29;20062;-59
2022/06/14 08:29:18;;;;;;;4.00;2.00;;;;;;;36.11;15.17;94300.31;4934424;29;20138;-59
2022/06/14 08:32:14;;;;;;;4.75;2.22;;;;;;;36.11;15.67;94291.00;4912046;29;20040;-59
2022/06/14 08:34:51;;;;;;;3.88;2.10;;;;;;;37.46;15.18;94296.28;4904678;29;20449;-59
2022/06/14 08:37:35;;;;;;;3.95;2.10;;;;;;;34.68;16.04;94295.66;4933306;29;20059;-59
2022/06/14 08:40:29;;;;;;;4.37;2.10;;;;;;;34.01;17.38;94299.97;4934430;29;20050;-59
2022/06/14 08:43:01;;;;;;;4.13;2.10;;;;;;;34.18;16.93;94305.16;4921000;29;20126;-59
2022/06/14 08:46:00;;;;;;;4.95;2.30;;;;;;;35.58;16.44;94299.09;4918058;29;20059;-59
2022/06/14 08:48:56;;;;;;;3.95;2.10;;;;;;;35.88;16.15;94293.91;4933954;29;21516;-59
2022/06/14 08:51:35;;;;;;;4.03;2.47;;;;;;;33.21;18.34;94299.84;4933632;29;20052;-59
2022/06/14 08:54:24;;;;;;;4.10;2.03;;;;;;;34.93;16.56;94293.81;4933879;29;20054;-59
2022/06/14 08:57:12;;;;;;;6.35;2.03;;;;;;;36.25;15.99;94282.97;4933149;29;20043;-60
2022/06/14 09:00:05;;;;;;;6.20;2.10;;;;;;;36.74;15.68;94284.41;4933899;29;20071;-59
2022/06/14 09:02:35;;;;;;;4.60;1.85;;;;;;;36.43;15.19;94280.97;4933383;29;21641;-59
2022/06/14 09:05:02;;;;;;;3.58;2.00;;;;;;;37.82;14.29;94286.41;4933989;29;20054;-59
2022/06/14 09:07:47;;;;;;;4.47;2.10;;;;;;;37.75;14.93;94283.03;4927086;29;20044;-59
2022/06/14 09:10:49;;;;;;;3.80;1.98;;;;;;;36.15;15.57;94288.53;4915103;29;20062;-60
2022/06/14 09:13:22;;;;;;;7.22;2.20;;;;;;;37.87;14.19;94283.31;4887681;29;20060;-58
2022/06/14 09:16:03;;;;;;;4.03;1.92;;;;;;;37.61;14.92;94281.84;4922980;29;20059;-58
2022/06/14 09:18:39;;;;;;;3.70;1.92;;;;;;;37.91;13.97;94277.91;4910871;29;20054;-59
2022/06/14 09:21:05;;;;;;;4.20;2.00;;;;;;;39.53;13.71;94275.66;4933594;29;20047;-59
2022/06/14 09:23:50;;;;;;;3.67;2.05;;;;;;;38.65;13.81;94268.78;4934211;29;20517;-59
2022/06/14 09:26:29;;;;;;;5.32;2.00;;;;;;;36.16;15.54;94267.94;4920244;29;20044;-58
2022/06/14 09:29:11;;;;;;;3.33;1.90;;;;;;;37.72;14.75;94267.03;4932648;29;20410;-57
2022/06/14 09:31:53;;;;;;;4.45;2.00;;;;;;;39.15;13.72;94260.56;4933855;29;20119;-59
2022/06/14 09:34:48;;;;;;;6.53;2.13;;;;;;;38.96;13.55;94266.97;4928783;29;20409;-59
2022/06/14 09:37:42;;;;;;;5.75;2.10;;;;;;;37.73;14.29;94262.81;4907136;29;20059;-59
2022/06/14 09:40:17;;;;;;;3.65;1.83;;;;;;;38.62;13.69;94267.88;4933463;29;20082;-59
2022/06/14 09:43:11;;;;;;;3.28;1.83;;;;;;;38.27;13.40;94267.19;4922640;29;20054;-59
2022/06/14 09:45:38;;;;;;;4.00;2.10;;;;;;;35.85;15.23;94270.13;4932878;29;20660;-59
2022/06/14 09:48:43;;;;;;;4.73;2.07;;;;;;;37.41;14.35;94251.47;4933119;29;20040;-59
2022/06/14 09:51:25;;;;;;;4.00;2.00;;;;;;;36.69;15.03;94259.69;4933088;29;20114;-59
2022/06/14 09:54:42;;;;;;;5.18;2.00;;;;;;;34.47;16.97;94267.25;4933708;29;20070;-59
2022/06/14 09:57:20;;;;;;;5.07;2.00;;;;;;;37.20;15.20;94260.44;4897769;29;20040;-59
2022/06/14 10:00:07;;;;;;;3.63;1.98;;;;;;;36.59;14.75;94259.53;4933671;29;20078;-59
2022/06/14 10:02:40;;;;;;;4.03;1.90;;;;;;;37.80;14.85;94260.47;4932130;29;20659;-59
2022/06/14 10:05:22;;;;;;;4.00;1.80;;;;;;;37.35;14.30;94252.50;4932837;29;20040;-59
2022/06/14 10:07:52;;;;;;;3.88;2.30;;;;;;;34.99;16.17;94253.66;4923299;29;20047;-59
2022/06/14 10:10:34;;;;;;;5.07;2.17;;;;;;;36.00;15.02;94249.34;4913960;29;20048;-59
2022/06/14 10:13:20;;;;;;;3.65;2.08;;;;;;;35.46;15.89;94243.00;4917104;29;20051;-59
2022/06/14 10:15:56;;;;;;;3.97;2.03;;;;;;;35.85;15.01;94243.66;4921966;29;20050;-59
2022/06/14 10:18:44;;;;;;;5.47;2.00;;;;;;;34.24;16.18;94252.97;4920165;29;20070;-59
2022/06/14 10:21:37;;;;;;;4.95;2.33;;;;;;;27.38;23.68;94254.19;4931323;29;20048;-59
2022/06/14 10:24:14;;;;;;;4.90;2.42;;;;;;;26.49;23.97;94256.63;4902017;29;20056;-59
2022/06/14 10:29:48;;;;;;;3.50;2.13;;;;;;;33.04;18.21;94240.50;4930694;29;20040;-59
2022/06/14 10:32:37;;;;;;;4.57;2.08;;;;;;;33.78;17.95;94239.28;4932692;29;20048;-59
2022/06/14 10:35:35;;;;;;;3.78;2.30;;;;;;;31.87;19.04;94242.00;4929323;29;20054;-58
2022/06/14 10:38:39;;;;;;;4.38;2.22;;;;;;;29.98;20.39;94239.38;4932493;29;20063;-58
2022/06/14 10:41:31;;;;;;;3.78;2.20;;;;;;;31.76;19.05;94235.25;4911809;29;20058;-58
2022/06/14 10:44:19;;;;;;;4.40;2.37;;;;;;;26.17;25.00;94234.38;4907284;29;20044;-57
2022/06/14 10:47:05;;;;;;;5.28;2.78;;;;;;;25.24;26.23;94237.97;4932824;29;20083;-58
2022/06/14 10:49:32;;;;;;;4.63;2.30;;;;;;;28.33;22.48;94232.38;4907127;29;20048;-58
2022/06/14 10:52:16;;;;;;;4.65;2.20;;;;;;;29.18;22.12;94238.06;4927244;29;20054;-58
2022/06/14 10:55:20;;;;;;;4.93;2.20;;;;;;;27.64;23.34;94222.81;4932448;29;20052;-58
2022/06/14 10:58:20;;;;;;;5.13;2.40;;;;;;;27.55;22.63;94221.06;4931687;29;20391;-58
2022/06/14 11:00:56;;;;;;;4.97;2.30;;;;;;;27.12;23.42;94215.81;4931541;29;20476;-58
2022/06/14 11:04:05;;;;;;;4.57;2.40;;;;;;;25.94;24.91;94221.56;4931406;29;20514;-57
2022/06/14 11:07:07;;;;;;;4.18;2.45;;;;;;;27.04;24.39;94214.84;4915953;29;20065;-57
2022/06/14 11:10:12;;;;;;;4.88;2.28;;;;;;;27.73;22.87;94213.25;4888998;29;20617;-58
2022/06/14 11:12:48;;;;;;;3.37;2.07;;;;;;;27.42;22.60;94212.41;4915852;29;21673;-57
2022/06/14 11:15:24;;;;;;;5.25;2.22;;;;;;;27.43;23.05;94203.44;4931275;29;20430;-57
2022/06/14 11:18:09;;;;;;;5.78;2.47;;;;;;;25.66;26.25;94208.97;4918887;29;20052;-58
2022/06/14 11:20:58;;;;;;;4.65;2.08;;;;;;;27.07;25.28;94196.91;4931381;29;20669;-58
2022/06/14 11:23:31;;;;;;;4.32;2.25;;;;;;;25.62;24.85;94207.69;4930230;29;20421;-58
2022/06/14 11:26:14;;;;;;;4.77;2.10;;;;;;;25.43;25.13;94194.09;4916093;29;20048;-58
2022/06/14 11:28:54;;;;;;;3.88;2.20;;;;;;;24.19;26.87;94212.28;4913318;29;20047;-58
2022/06/14 11:31:30;;;;;;;4.28;2.58;;;;;;;24.16;27.04;94202.06;4926074;29;21713;-58
2022/06/14 11:34:09;;;;;;;4.28;2.30;;;;;;;23.96;27.48;94211.31;4926977;29;20047;-58
2022/06/14 11:36:46;;;;;;;4.28;2.00;;;;;;;24.19;26.46;94198.28;4935880;29;20040;-58
2022/06/14 11:39:16;;;;;;;4.87;2.10;;;;;;;24.30;25.95;94201.91;4935448;29;20066;-58
2022/06/14 11:41:46;;;;;;;4.85;2.30;;;;;;;24.27;27.01;94196.53;4930814;29;20044;-58
2022/06/14 11:44:52;;;;;;;4.07;2.13;;;;;;;24.65;24.11;94192.47;4927961;29;20052;-58
2022/06/14 11:47:31;;;;;;;3.78;2.00;;;;;;;25.16;23.12;94194.75;4887240;29;20043;-58
2022/06/14 11:50:05;;;;;;;4.85;2.08;;;;;;;24.87;24.72;94188.22;4935258;29;20095;-58
2022/06/14 11:53:03;;;;;;;4.33;2.43;;;;;;;24.82;25.03;94197.41;4935917;29;20048;-58
2022/06/14 11:55:51;;;;;;;4.32;2.05;;;;;;;24.73;25.18;94192.78;4934460;29;20082;-58
2022/06/14 11:58:21;;;;;;;4.25;2.08;;;;;;;24.48;26.83;94189.53;4935330;29;20069;-58
2022/06/14 12:01:02;;;;;;;5.40;2.05;;;;;;;24.58;25.72;94201.34;4934643;29;20043;-57
2022/06/14 12:03:46;;;;;;;5.18;2.28;;;;;;;24.37;26.26;94191.47;4934435;29;20541;-58
2022/06/14 12:06:31;;;;;;;4.60;2.20;;;;;;;24.68;25.62;94191.47;4934704;29;20048;-58
2022/06/14 12:09:07;;;;;;;5.55;2.25;;;;;;;24.39;25.35;94188.94;4934584;29;20600;-57
2022/06/14 12:11:59;;;;;;;3.25;2.10;;;;;;;24.43;26.27;94184.66;4935134;29;20051;-57
2022/06/14 12:14:44;;;;;;;5.43;2.30;;;;;;;24.46;26.09;94180.09;4934053;29;20665;-58
2022/06/14 12:17:32;;;;;;;5.22;2.28;;;;;;;25.00;25.67;94173.75;4919651;29;20384;-58
2022/06/14 12:20:05;;;;;;;3.63;2.20;;;;;;;25.45;25.29;94176.72;4934498;29;20043;-58
2022/06/14 12:23:01;;;;;;;5.72;2.20;;;;;;;24.88;26.43;94178.56;4933714;29;20043;-58
2022/06/14 12:28:31;;;;;;;4.50;2.30;;;;;;;24.86;25.91;94181.09;4934784;29;20054;-58
2022/06/14 12:31:06;;;;;;;3.70;2.10;;;;;;;25.32;25.46;94177.22;4933155;29;20040;-58
2022/06/14 12:33:42;;;;;;;5.23;2.60;;;;;;;23.52;27.32;94174.72;4931837;29;20336;-58
2022/06/14 12:36:19;;;;;;;4.50;2.22;;;;;;;24.44;26.70;94166.53;4934627;29;20035;-58
2022/06/14 12:38:50;;;;;;;5.72;2.20;;;;;;;24.58;26.21;94175.34;4934977;29;20040;-58
2022/06/14 12:41:27;;;;;;;4.53;2.20;;;;;;;24.60;26.33;94164.38;4934178;29;20052;-58
2022/06/14 12:44:24;;;;;;;4.40;2.25;;;;;;;24.71;25.76;94164.44;4934579;29;20394;-58
2022/06/14 12:46:55;;;;;;;5.17;2.10;;;;;;;24.58;25.67;94164.88;4932666;29;20118;-58
2022/06/14 12:49:29;;;;;;;4.28;2.40;;;;;;;24.50;25.38;94161.75;4916849;29;20035;-58
2022/06/14 12:52:12;;;;;;;4.65;2.20;;;;;;;24.89;25.27;94160.44;4913692;29;20421;-58
2022/06/14 12:55:03;;;;;;;5.57;2.30;;;;;;;25.55;25.44;94144.31;4915828;29;20040;-58